Time;durP1;ratioP1;P1;durP2;ratioP2;P2;SDS_P1;SDS_P2;PMS_P1;PMS_P2;Temp;Humidity;BMP_temperature;BMP_pressure;BME280_temperature;BME280_humidity;BME280_pressure;Samples;Min_cycle;Max_cycle;Signal;HPM_P1;HPM_P2
2021/04/04 00:00:27;;;;;;;6.23;4.20;;;7.60;99.90;;;;;;5100403;28;20155;-82
2021/04/04 00:02:53;;;;;;;9.77;5.40;;;7.30;99.90;;;;;;5100512;28;20220;-82
2021/04/04 00:05:19;;;;;;;7.23;4.40;;;7.40;99.90;;;;;;5100419;28;20397;-80
2021/04/04 00:07:45;;;;;;;8.00;5.17;;;7.40;99.90;;;;;;5100413;28;20646;-81
2021/04/04 00:10:13;;;;;;;8.23;5.30;;;7.40;99.90;;;;;;5100807;28;20420;-82
2021/04/04 00:12:39;;;;;;;10.97;5.13;;;7.30;99.90;;;;;;5100517;28;20273;-82
2021/04/04 00:15:09;;;;;;;10.57;5.10;;;7.20;99.90;;;;;;5099488;28;20385;-81
2021/04/04 00:17:58;;;;;;;20.97;6.10;;;7.30;99.90;;;;;;5101534;28;20381;-81
2021/04/04 00:20:24;;;;;;;9.70;5.20;;;7.40;99.90;;;;;;5068984;28;20406;-81
2021/04/04 00:22:50;;;;;;;10.73;4.63;;;7.40;99.90;;;;;;5099420;28;20744;-81
2021/04/04 00:25:16;;;;;;;8.90;5.30;;;7.30;99.90;;;;;;5081949;28;20190;-81
2021/04/04 00:27:42;;;;;;;11.90;4.80;;;7.30;99.90;;;;;;5099890;28;20163;-81
2021/04/04 00:30:18;;;;;;;11.47;5.50;;;7.20;99.90;;;;;;5099823;28;20434;-81
2021/04/04 00:32:44;;;;;;;14.07;6.50;;;7.30;99.90;;;;;;5100136;28;20493;-82
2021/04/04 00:35:14;;;;;;;11.43;4.33;;;7.20;99.90;;;;;;5099959;28;20384;-81
2021/04/04 00:37:40;;;;;;;7.07;4.30;;;7.10;99.90;;;;;;5100293;28;20737;-82
2021/04/04 00:40:18;;;;;;;8.83;5.57;;;7.20;99.90;;;;;;5100135;28;20385;-82
2021/04/04 00:42:44;;;;;;;7.27;5.90;;;7.30;99.90;;;;;;5100901;28;20258;-82
2021/04/04 00:45:14;;;;;;;7.80;4.40;;;7.30;99.90;;;;;;5100612;28;20405;-81
2021/04/04 00:47:40;;;;;;;8.63;4.83;;;7.30;99.90;;;;;;5110671;28;20397;-80
2021/04/04 00:50:07;;;;;;;9.33;4.80;;;7.30;99.90;;;;;;5105171;28;20470;-82
2021/04/04 00:52:34;;;;;;;6.30;4.53;;;7.20;99.90;;;;;;5100312;28;20195;-82
2021/04/04 00:55:01;;;;;;;15.37;5.23;;;7.20;99.90;;;;;;5100401;28;20396;-82
2021/04/04 00:57:26;;;;;;;13.63;5.03;;;7.00;99.90;;;;;;5099603;28;20432;-82
2021/04/04 00:59:53;;;;;;;4.73;3.80;;;6.70;99.90;;;;;;5099886;28;20419;-82
2021/04/04 01:02:19;;;;;;;6.47;4.53;;;6.60;99.90;;;;;;5099424;28;20167;-82
2021/04/04 01:04:48;;;;;;;11.23;5.47;;;6.70;99.90;;;;;;5099385;28;20441;-82
2021/04/04 01:07:14;;;;;;;4.57;4.17;;;6.50;99.90;;;;;;5099464;28;20456;-81
2021/04/04 01:09:41;;;;;;;5.73;3.63;;;6.50;99.90;;;;;;5098810;28;20396;-81
2021/04/04 01:12:18;;;;;;;10.00;5.00;;;6.60;99.90;;;;;;5098737;28;20444;-80
2021/04/04 01:15:03;;;;;;;7.73;6.60;;;6.70;99.90;;;;;;5082023;28;20381;-81
2021/04/04 01:17:32;;;;;;;20.57;11.50;;;6.70;99.90;;;;;;5098265;28;20565;-82
2021/04/04 01:20:17;;;;;;;13.67;5.60;;;6.70;99.90;;;;;;5098967;28;20443;-82
2021/04/04 01:23:11;;;;;;;6.93;4.40;;;6.60;99.90;;;;;;5081801;28;20461;-82
2021/04/04 01:26:11;;;;;;;7.43;3.90;;;6.70;99.90;;;;;;5084996;28;20385;-81
2021/04/04 01:28:42;;;;;;;6.00;4.40;;;6.80;99.90;;;;;;5098341;28;20420;-82
2021/04/04 01:31:08;;;;;;;5.87;5.23;;;6.90;99.90;;;;;;5098333;28;20857;-82
2021/04/04 01:33:36;;;;;;;7.27;5.10;;;6.90;99.90;;;;;;5098281;28;20392;-81
2021/04/04 01:36:05;;;;;;;7.07;5.10;;;7.00;99.90;;;;;;5080246;28;20389;-82
2021/04/04 01:38:33;;;;;;;6.87;5.20;;;7.00;99.90;;;;;;5098282;28;20396;-81
2021/04/04 01:41:19;;;;;;;8.73;5.63;;;6.90;99.90;;;;;;5098583;28;20423;-81
2021/04/04 01:43:48;;;;;;;7.67;5.10;;;6.70;99.90;;;;;;5098506;28;20393;-82
2021/04/04 01:46:15;;;;;;;10.67;5.13;;;6.40;99.90;;;;;;5097796;28;20474;-82
2021/04/04 01:48:43;;;;;;;4.90;4.50;;;6.20;99.90;;;;;;5098359;28;20396;-82
2021/04/04 01:51:11;;;;;;;5.93;3.73;;;6.00;99.90;;;;;;5098345;28;20426;-82
2021/04/04 01:53:41;;;;;;;4.97;4.50;;;6.00;99.90;;;;;;5098392;28;20671;-82
2021/04/04 01:56:07;;;;;;;7.33;4.23;;;5.80;99.90;;;;;;5098701;28;20685;-82
2021/04/04 01:58:35;;;;;;;8.13;4.80;;;5.80;99.90;;;;;;5098136;28;20384;-80
2021/04/04 02:01:01;;;;;;;7.90;5.37;;;5.70;99.90;;;;;;5080530;28;20389;-82
2021/04/04 02:03:28;;;;;;;11.63;3.97;;;5.80;99.90;;;;;;5098319;28;20399;-82
2021/04/04 02:05:55;;;;;;;7.20;4.27;;;6.00;99.90;;;;;;5098744;28;20437;-81
2021/04/04 02:08:22;;;;;;;6.40;4.17;;;6.10;99.90;;;;;;5097467;28;20420;-82
2021/04/04 02:10:50;;;;;;;5.47;4.07;;;5.90;99.90;;;;;;5097694;28;20402;-81
2021/04/04 02:13:18;;;;;;;7.57;3.60;;;5.70;99.90;;;;;;5097671;28;20966;-82
2021/04/04 02:15:45;;;;;;;4.57;4.10;;;5.70;99.90;;;;;;5097795;28;20530;-82
2021/04/04 02:18:13;;;;;;;5.90;4.47;;;5.70;99.90;;;;;;5098513;28;20385;-82
2021/04/04 02:20:39;;;;;;;13.40;4.53;;;5.90;99.90;;;;;;5100372;28;20393;-80
2021/04/04 02:23:07;;;;;;;6.37;4.73;;;6.00;99.90;;;;;;5098174;28;20404;-81
2021/04/04 02:25:33;;;;;;;17.43;3.97;;;6.10;99.90;;;;;;5097166;28;20861;-81
2021/04/04 02:27:59;;;;;;;5.07;4.57;;;6.10;99.90;;;;;;5097639;28;20419;-81
2021/04/04 02:30:27;;;;;;;5.00;4.20;;;6.20;99.90;;;;;;5097761;28;20407;-82
2021/04/04 02:33:12;;;;;;;4.03;3.67;;;6.20;99.90;;;;;;5097270;28;20436;-81
2021/04/04 02:35:42;;;;;;;5.03;3.70;;;6.20;99.90;;;;;;5096641;28;20735;-81
2021/04/04 02:38:14;;;;;;;5.83;3.57;;;6.20;99.90;;;;;;5079929;28;20393;-81
2021/04/04 02:40:44;;;;;;;6.00;4.27;;;6.00;99.90;;;;;;5096672;28;20428;-81
2021/04/04 02:43:16;;;;;;;7.33;3.90;;;5.80;99.90;;;;;;5096993;28;20456;-81
2021/04/04 02:45:44;;;;;;;6.37;4.63;;;5.80;99.90;;;;;;5078558;28;20462;-81
2021/04/04 02:48:16;;;;;;;5.80;3.83;;;5.90;99.90;;;;;;5096748;28;20509;-81
2021/04/04 02:50:44;;;;;;;4.83;3.80;;;5.90;99.90;;;;;;5097250;28;20401;-80
2021/04/04 02:53:12;;;;;;;9.87;5.07;;;5.80;99.90;;;;;;5096934;28;20480;-81
2021/04/04 02:55:39;;;;;;;11.97;3.53;;;5.70;99.90;;;;;;5096937;28;20388;-81
2021/04/04 02:58:07;;;;;;;4.07;3.70;;;5.60;99.90;;;;;;5096753;28;20420;-82
2021/04/04 03:00:35;;;;;;;5.23;3.97;;;5.60;99.90;;;;;;5097197;28;20389;-81
2021/04/04 03:03:03;;;;;;;4.27;3.97;;;5.60;99.90;;;;;;5097192;28;20397;-81
2021/04/04 03:05:30;;;;;;;4.47;3.40;;;5.60;99.90;;;;;;5078933;28;20877;-81
2021/04/04 03:08:01;;;;;;;7.83;4.87;;;5.60;99.90;;;;;;5096513;28;20562;-82
2021/04/04 03:10:27;;;;;;;10.33;5.10;;;5.60;99.90;;;;;;5097429;28;20397;-81
2021/04/04 03:12:54;;;;;;;10.23;4.27;;;5.60;99.90;;;;;;5096835;28;20478;-81
2021/04/04 03:15:20;;;;;;;11.97;4.13;;;5.60;99.90;;;;;;5096987;28;20408;-81
2021/04/04 03:17:48;;;;;;;10.03;4.67;;;5.50;99.90;;;;;;5097046;28;20519;-81
2021/04/04 03:20:14;;;;;;;5.90;4.50;;;5.50;99.90;;;;;;5096548;28;20385;-81
2021/04/04 03:22:43;;;;;;;6.30;4.37;;;5.50;99.90;;;;;;5099487;28;20775;-81
2021/04/04 03:25:10;;;;;;;16.37;4.00;;;5.50;99.90;;;;;;5099928;28;20395;-81
2021/04/04 03:27:39;;;;;;;4.60;4.20;;;5.50;99.90;;;;;;5100577;28;20419;-82
2021/04/04 03:30:07;;;;;;;3.90;3.50;;;5.50;99.90;;;;;;5100122;28;20405;-82
2021/04/04 03:32:36;;;;;;;5.93;5.10;;;5.50;99.90;;;;;;5100115;28;20474;-81
2021/04/04 03:35:15;;;;;;;6.40;3.90;;;5.50;99.90;;;;;;5100288;28;20400;-81
2021/04/04 03:37:40;;;;;;;9.63;4.20;;;5.40;99.90;;;;;;5049715;28;20401;-81
2021/04/04 03:40:07;;;;;;;6.40;4.23;;;5.40;99.90;;;;;;5109131;28;20503;-81
2021/04/04 03:42:33;;;;;;;12.77;3.73;;;5.40;99.90;;;;;;5097194;28;20192;-83
2021/04/04 03:45:00;;;;;;;5.60;3.63;;;5.40;99.90;;;;;;5102511;28;20397;-81
2021/04/04 03:47:27;;;;;;;9.53;4.63;;;5.40;99.90;;;;;;5093664;28;20190;-82
2021/04/04 03:49:54;;;;;;;6.37;5.40;;;5.30;99.90;;;;;;5121980;28;20393;-83
2021/04/04 03:52:21;;;;;;;4.57;4.00;;;5.40;99.90;;;;;;5138386;28;20447;-82
2021/04/04 03:54:49;;;;;;;5.03;3.97;;;5.10;99.90;;;;;;5132947;28;20407;-83
2021/04/04 03:57:15;;;;;;;11.53;4.83;;;4.70;99.90;;;;;;5121523;28;20384;-83
2021/04/04 03:59:42;;;;;;;7.00;4.17;;;4.80;99.90;;;;;;5120952;28;20882;-81
2021/04/04 04:02:08;;;;;;;4.37;3.60;;;4.70;99.90;;;;;;5120929;28;20392;-82
2021/04/04 04:04:35;;;;;;;11.50;5.07;;;4.80;99.90;;;;;;5121224;28;20719;-81
2021/04/04 04:07:04;;;;;;;6.60;3.87;;;4.50;99.90;;;;;;5121420;28;20392;-83
2021/04/04 04:09:31;;;;;;;6.83;4.30;;;4.30;99.90;;;;;;5123135;28;20457;-83
2021/04/04 04:11:58;;;;;;;6.10;4.60;;;4.50;99.90;;;;;;5128295;28;20440;-82
2021/04/04 04:14:24;;;;;;;4.33;3.70;;;4.30;99.90;;;;;;5128358;28;20471;-82
2021/04/04 04:16:51;;;;;;;5.53;3.83;;;4.10;99.90;;;;;;5127102;28;20399;-82
2021/04/04 04:19:17;;;;;;;7.00;4.07;;;3.90;99.90;;;;;;5126548;28;20414;-83
2021/04/04 04:21:44;;;;;;;11.83;4.57;;;3.70;99.90;;;;;;5122919;28;20391;-82
2021/04/04 04:24:13;;;;;;;5.30;3.83;;;3.70;99.90;;;;;;5120899;28;20431;-82
2021/04/04 04:26:42;;;;;;;6.17;4.27;;;3.60;99.90;;;;;;5120229;28;20400;-82
2021/04/04 04:29:10;;;;;;;8.20;4.27;;;4.10;99.90;;;;;;5101738;28;20897;-82
2021/04/04 04:31:39;;;;;;;7.43;4.63;;;4.40;99.90;;;;;;5120044;28;20474;-82
2021/04/04 04:34:07;;;;;;;9.67;4.70;;;4.60;99.90;;;;;;5120027;28;20395;-81
2021/04/04 04:36:33;;;;;;;7.57;4.63;;;4.60;99.90;;;;;;5120292;28;20389;-81
2021/04/04 04:39:01;;;;;;;6.53;4.27;;;4.70;99.90;;;;;;5120540;28;20708;-82
2021/04/04 04:41:30;;;;;;;8.47;4.30;;;4.80;99.90;;;;;;5121733;28;20449;-82
2021/04/04 04:44:00;;;;;;;10.40;5.43;;;4.70;99.90;;;;;;5120128;28;20400;-81
2021/04/04 04:46:27;;;;;;;14.97;4.03;;;4.70;99.90;;;;;;5119211;28;20462;-82
2021/04/04 04:48:53;;;;;;;4.30;3.90;;;4.70;99.90;;;;;;5119822;28;20880;-81
2021/04/04 04:51:21;;;;;;;7.87;4.17;;;4.70;99.90;;;;;;5119970;28;20392;-82
2021/04/04 04:53:48;;;;;;;8.40;4.40;;;4.80;99.90;;;;;;5119440;28;20388;-82
2021/04/04 04:56:15;;;;;;;11.93;4.70;;;4.80;99.90;;;;;;5119899;28;20384;-82
2021/04/04 04:58:43;;;;;;;3.10;2.90;;;4.70;99.90;;;;;;5119359;28;20384;-81
2021/04/04 05:01:13;;;;;;;10.70;4.77;;;4.60;99.90;;;;;;5119654;28;20384;-82
2021/04/04 05:03:39;;;;;;;8.33;5.30;;;4.70;99.90;;;;;;5119318;28;20476;-81
2021/04/04 05:06:08;;;;;;;9.23;3.60;;;4.60;99.90;;;;;;5119470;28;20380;-81
2021/04/04 05:08:34;;;;;;;7.23;3.73;;;4.60;99.90;;;;;;5119556;28;20608;-82
2021/04/04 05:11:06;;;;;;;5.40;3.83;;;4.60;99.90;;;;;;5119397;28;20728;-82
2021/04/04 05:13:32;;;;;;;4.03;3.73;;;4.60;99.90;;;;;;5120095;28;20396;-82
2021/04/04 05:15:59;;;;;;;5.13;3.53;;;4.70;99.90;;;;;;5119124;28;20388;-81
2021/04/04 05:18:25;;;;;;;5.53;3.73;;;4.70;99.90;;;;;;5119021;28;20460;-82
2021/04/04 05:20:51;;;;;;;6.53;5.53;;;4.70;99.90;;;;;;5119768;28;20514;-81
2021/04/04 05:23:20;;;;;;;6.60;4.13;;;4.60;99.90;;;;;;5119759;28;20165;-82
2021/04/04 05:25:47;;;;;;;6.57;3.60;;;4.50;99.90;;;;;;5119155;28;20158;-82
2021/04/04 05:28:13;;;;;;;6.90;4.00;;;4.50;99.90;;;;;;5119230;28;20395;-82
2021/04/04 05:30:39;;;;;;;6.60;4.50;;;4.50;99.90;;;;;;5119686;28;20393;-82
2021/04/04 05:33:05;;;;;;;7.70;4.20;;;4.50;99.90;;;;;;5119223;28;20228;-82
2021/04/04 05:35:37;;;;;;;6.80;3.97;;;4.60;99.90;;;;;;5122666;28;20215;-79
2021/04/04 05:38:04;;;;;;;15.63;3.93;;;4.70;99.90;;;;;;5123400;28;20383;-79
2021/04/04 05:40:30;;;;;;;4.70;4.30;;;4.80;99.90;;;;;;5123949;28;20448;-79
2021/04/04 05:43:00;;;;;;;8.00;5.13;;;4.80;99.90;;;;;;5122241;28;20400;-81
2021/04/04 05:45:58;;;;;;;6.27;3.67;;;4.80;99.90;;;;;;5112611;28;20575;-81
2021/04/04 05:48:46;;;;;;;9.53;4.77;;;4.90;99.90;;;;;;5085321;28;20401;-81
2021/04/04 05:51:21;;;;;;;6.47;3.10;;;5.00;99.90;;;;;;5097599;28;20416;-82
2021/04/04 05:54:14;;;;;;;10.60;5.80;;;5.00;99.90;;;;;;5098167;28;20389;-82
2021/04/04 05:56:46;;;;;;;4.20;3.40;;;4.80;99.90;;;;;;5083958;28;20778;-81
2021/04/04 05:59:26;;;;;;;10.13;3.60;;;4.90;99.90;;;;;;5097814;28;20388;-82
2021/04/04 06:02:23;;;;;;;8.87;3.93;;;4.90;99.90;;;;;;5098029;28;20407;-81
2021/04/04 06:05:19;;;;;;;7.93;4.30;;;4.90;99.90;;;;;;5097739;28;20450;-81
2021/04/04 06:08:05;;;;;;;8.43;4.60;;;4.70;99.90;;;;;;5097361;28;20800;-81
2021/04/04 06:10:55;;;;;;;7.23;4.17;;;4.80;99.90;;;;;;5098114;28;20400;-81
2021/04/04 06:13:37;;;;;;;9.13;3.87;;;4.80;99.90;;;;;;5098129;28;20428;-81
2021/04/04 06:16:20;;;;;;;6.90;3.60;;;5.10;99.90;;;;;;5080284;28;20392;-81
2021/04/04 06:19:12;;;;;;;6.90;3.97;;;5.10;99.90;;;;;;5098473;28;20395;-81
2021/04/04 06:21:48;;;;;;;3.83;3.27;;;5.20;99.90;;;;;;5083955;28;20913;-81
2021/04/04 06:24:26;;;;;;;6.83;5.03;;;5.20;99.90;;;;;;5100778;28;20457;-80
2021/04/04 06:27:30;;;;;;;6.60;4.40;;;5.20;99.90;;;;;;5100817;28;20385;-81
2021/04/04 06:30:46;;;;;;;16.60;4.70;;;5.20;99.90;;;;;;5089484;28;20798;-81
2021/04/04 06:33:30;;;;;;;11.90;4.43;;;5.10;99.90;;;;;;5083782;28;20455;-81
2021/04/04 06:36:21;;;;;;;6.83;4.00;;;5.20;99.90;;;;;;5098002;28;20462;-81
2021/04/04 06:39:04;;;;;;;10.47;4.60;;;5.00;99.90;;;;;;5097576;28;20390;-81
2021/04/04 06:41:53;;;;;;;7.13;4.10;;;5.20;99.90;;;;;;5098622;28;20783;-81
2021/04/04 06:44:52;;;;;;;3.60;3.17;;;5.40;99.90;;;;;;5099836;28;20451;-80
2021/04/04 06:47:42;;;;;;;4.00;3.60;;;5.60;99.90;;;;;;5089280;28;20461;-78
2021/04/04 06:50:20;;;;;;;4.90;4.33;;;5.70;99.90;;;;;;5103462;28;20400;-78
2021/04/04 06:53:12;;;;;;;8.40;2.93;;;5.60;99.90;;;;;;5108139;28;20440;-82
2021/04/04 06:55:48;;;;;;;3.93;3.53;;;5.70;99.90;;;;;;5093420;28;20376;-78
2021/04/04 06:58:33;;;;;;;5.40;4.37;;;5.70;99.90;;;;;;5117200;28;20431;-82
2021/04/04 07:01:23;;;;;;;7.13;4.37;;;5.80;99.90;;;;;;5083939;28;20385;-82
2021/04/04 07:03:56;;;;;;;3.93;3.60;;;5.80;99.90;;;;;;5101990;28;20393;-82
2021/04/04 07:06:53;;;;;;;4.63;2.97;;;5.80;99.90;;;;;;5101889;28;20396;-82
2021/04/04 07:09:43;;;;;;;5.87;3.53;;;5.90;99.90;;;;;;5101697;28;20805;-82
2021/04/04 07:12:32;;;;;;;5.93;4.23;;;6.00;99.90;;;;;;5101510;28;20439;-82
2021/04/04 07:15:24;;;;;;;8.20;4.47;;;5.90;99.90;;;;;;5102093;28;20396;-82
2021/04/04 07:18:24;;;;;;;8.50;4.40;;;6.00;99.90;;;;;;5101620;28;20385;-82
2021/04/04 07:21:24;;;;;;;10.03;4.23;;;5.80;99.90;;;;;;5100434;28;20427;-81
2021/04/04 07:24:15;;;;;;;6.53;3.60;;;6.20;99.90;;;;;;5101195;28;20404;-81
2021/04/04 07:27:15;;;;;;;9.80;3.77;;;6.30;99.90;;;;;;5083081;28;20757;-82
2021/04/04 07:30:00;;;;;;;10.50;5.30;;;6.30;99.90;;;;;;5101529;28;20472;-82
2021/04/04 07:32:46;;;;;;;10.50;4.47;;;6.00;99.90;;;;;;5101273;28;20932;-82
2021/04/04 07:35:16;;;;;;;6.80;5.17;;;6.10;99.90;;;;;;5101806;28;20404;-82
2021/04/04 07:37:53;;;;;;;4.97;3.37;;;6.40;99.90;;;;;;5102526;28;20400;-80
2021/04/04 07:40:30;;;;;;;7.40;5.00;;;6.30;99.90;;;;;;5023960;28;20442;-83
2021/04/04 07:43:08;;;;;;;6.53;4.30;;;5.40;99.90;;;;;;5022830;28;20926;-81
2021/04/04 07:45:48;;;;;;;7.07;4.13;;;5.70;99.90;;;;;;5046072;28;20796;-82
2021/04/04 07:48:32;;;;;;;4.07;3.40;;;5.80;99.90;;;;;;5058414;28;20477;-82
2021/04/04 07:51:08;;;;;;;6.27;4.93;;;5.60;99.90;;;;;;5058414;28;20415;-83
2021/04/04 07:53:59;;;;;;;4.23;3.87;;;6.00;99.90;;;;;;5043419;28;20478;-83
2021/04/04 07:56:49;;;;;;;7.03;3.20;;;6.40;99.90;;;;;;5058813;28;20406;-83
2021/04/04 07:59:26;;;;;;;5.97;4.13;;;6.40;99.90;;;;;;5058779;28;20405;-82
2021/04/04 08:02:06;;;;;;;11.93;3.80;;;6.30;99.90;;;;;;5058453;28;20394;-82
2021/04/04 08:04:49;;;;;;;7.80;5.37;;;6.60;99.90;;;;;;5058539;28;20397;-82
2021/04/04 08:07:20;;;;;;;4.97;3.67;;;6.90;99.90;;;;;;5058127;28;20918;-82
2021/04/04 08:10:00;;;;;;;6.40;3.80;;;7.10;99.90;;;;;;5060978;28;20382;-79
2021/04/04 08:12:49;;;;;;;6.80;3.63;;;7.30;99.90;;;;;;5062054;28;20565;-81
2021/04/04 08:15:37;;;;;;;3.83;3.47;;;7.30;99.90;;;;;;5113792;28;20392;-81
2021/04/04 08:18:03;;;;;;;8.70;4.07;;;7.40;99.90;;;;;;5105088;28;20868;-81
2021/04/04 08:20:36;;;;;;;4.43;4.03;;;7.60;99.90;;;;;;5120210;28;20398;-80
2021/04/04 08:23:14;;;;;;;5.57;3.10;;;7.60;99.90;;;;;;5112303;28;20395;-83
2021/04/04 08:26:01;;;;;;;4.53;3.63;;;7.80;99.90;;;;;;5120897;28;20383;-83
2021/04/04 08:28:34;;;;;;;6.00;3.30;;;7.70;99.90;;;;;;5121001;28;20729;-82
2021/04/04 08:31:18;;;;;;;7.10;3.20;;;7.80;99.90;;;;;;5120630;28;20761;-82
2021/04/04 08:34:02;;;;;;;6.40;3.30;;;7.90;99.90;;;;;;5120585;28;20495;-82
2021/04/04 08:36:31;;;;;;;5.40;3.60;;;8.10;99.90;;;;;;5121362;28;20388;-82
2021/04/04 08:39:01;;;;;;;14.70;3.77;;;7.80;99.90;;;;;;5041437;28;20552;-82
2021/04/04 08:41:33;;;;;;;4.07;2.70;;;7.40;99.90;;;;;;5042390;28;20895;-82
2021/04/04 08:44:10;;;;;;;2.83;2.57;;;8.00;99.90;;;;;;5058628;28;20411;-82
2021/04/04 08:46:47;;;;;;;3.53;2.80;;;8.00;99.90;;;;;;5057334;28;20450;-82
2021/04/04 08:49:16;;;;;;;5.87;3.23;;;8.30;99.90;;;;;;5057874;28;20739;-82
2021/04/04 08:51:50;;;;;;;6.37;2.60;;;8.50;99.90;;;;;;5064554;28;20848;-80
2021/04/04 08:54:19;;;;;;;4.20;3.20;;;8.80;99.90;;;;;;5073064;28;20417;-80
2021/04/04 08:56:46;;;;;;;5.20;3.20;;;9.10;99.90;;;;;;5072577;28;20387;-81
2021/04/04 08:59:15;;;;;;;4.37;2.40;;;8.90;99.90;;;;;;5071549;28;20422;-82
2021/04/04 09:01:46;;;;;;;9.70;3.80;;;8.60;99.90;;;;;;5071956;28;20394;-80
2021/04/04 09:04:12;;;;;;;7.60;3.07;;;8.80;99.90;;;;;;5071885;28;20409;-80
2021/04/04 09:06:42;;;;;;;3.00;2.70;;;8.70;99.90;;;;;;5070913;28;20395;-82
2021/04/04 09:09:23;;;;;;;4.00;2.83;;;8.70;99.90;;;;;;5076595;28;20429;-82
2021/04/04 09:11:51;;;;;;;3.43;3.00;;;9.00;99.90;;;;;;5133785;28;20454;-80
2021/04/04 09:14:21;;;;;;;2.87;2.63;;;9.20;99.90;;;;;;5093574;28;20428;-82
2021/04/04 09:17:09;;;;;;;8.20;3.00;;;9.50;99.90;;;;;;5104999;28;20385;-82
2021/04/04 09:19:37;;;;;;;7.10;3.30;;;8.90;99.90;;;;;;5122746;28;20387;-83
2021/04/04 09:22:20;;;;;;;4.30;3.10;;;9.50;99.90;;;;;;5122758;28;20392;-82
2021/04/04 09:24:52;;;;;;;3.60;3.30;;;10.10;99.90;;;;;;5122591;28;20445;-83
2021/04/04 09:27:20;;;;;;;5.13;2.90;;;10.50;99.90;;;;;;5121527;28;20388;-82
2021/04/04 09:29:51;;;;;;;4.93;3.20;;;10.80;99.90;;;;;;5121665;28;20400;-82
2021/04/04 09:32:31;;;;;;;4.43;3.27;;;11.00;99.90;;;;;;5121169;28;20447;-82
2021/04/04 09:34:59;;;;;;;3.97;3.40;;;11.00;99.90;;;;;;5103046;28;20503;-82
2021/04/04 09:37:27;;;;;;;3.10;2.90;;;11.20;99.90;;;;;;5120618;28;20388;-83
2021/04/04 09:39:54;;;;;;;3.97;3.57;;;11.40;99.90;;;;;;5120782;28;20391;-82
2021/04/04 09:42:21;;;;;;;5.60;3.57;;;11.60;99.90;;;;;;5101982;28;20481;-83
2021/04/04 09:44:47;;;;;;;3.20;2.90;;;11.40;99.90;;;;;;5120606;28;20392;-83
2021/04/04 09:47:13;;;;;;;5.83;3.13;;;11.40;99.90;;;;;;5101844;28;20483;-82
2021/04/04 09:49:46;;;;;;;4.90;3.10;;;10.80;99.90;;;;;;5120693;28;20840;-82
2021/04/04 09:52:24;;;;;;;4.60;3.40;;;11.40;99.90;;;;;;5120661;28;20842;-82
2021/04/04 09:54:59;;;;;;;4.40;3.53;;;11.90;99.90;;;;;;5129928;28;20380;-82
2021/04/04 09:57:25;;;;;;;5.60;3.60;;;12.40;99.90;;;;;;5136754;28;20399;-82
2021/04/04 09:59:51;;;;;;;6.43;4.00;;;12.70;99.90;;;;;;5137004;28;20411;-80
2021/04/04 10:02:31;;;;;;;6.20;3.70;;;13.00;95.50;;;;;;5138245;28;20467;-82
2021/04/04 10:04:57;;;;;;;4.60;3.40;;;13.00;96.10;;;;;;5133067;27;20182;-83
2021/04/04 10:07:31;;;;;;;7.13;5.00;;;12.90;94.80;;;;;;5137615;28;20427;-80
2021/04/04 10:09:58;;;;;;;10.83;4.33;;;13.20;93.20;;;;;;5138212;28;20562;-80
2021/04/04 10:12:24;;;;;;;4.37;3.17;;;13.40;92.00;;;;;;5137842;27;20462;-82
2021/04/04 10:15:06;;;;;;;8.30;4.67;;;13.90;90.60;;;;;;5138284;28;20398;-82
2021/04/04 10:17:33;;;;;;;10.03;5.00;;;13.90;89.90;;;;;;5137892;27;20433;-81
2021/04/04 10:20:03;;;;;;;5.93;5.33;;;13.90;84.20;;;;;;5120341;28;20384;-81
2021/04/04 10:22:48;;;;;;;6.77;5.10;;;14.10;83.10;;;;;;5138073;27;20399;-83
2021/04/04 10:25:15;;;;;;;5.10;3.73;;;13.90;88.60;;;;;;5134712;28;20400;-83
2021/04/04 10:27:41;;;;;;;9.97;4.80;;;13.80;90.00;;;;;;5120316;28;20392;-83
2021/04/04 10:30:23;;;;;;;6.67;3.90;;;14.00;82.10;;;;;;5121648;28;20747;-83
2021/04/04 10:32:50;;;;;;;7.60;4.63;;;14.30;84.20;;;;;;5124694;28;20234;-83
2021/04/04 10:35:28;;;;;;;4.67;3.90;;;14.50;87.70;;;;;;5123796;28;20396;-83
2021/04/04 10:38:04;;;;;;;8.20;5.07;;;14.80;86.10;;;;;;5123549;28;20440;-81
2021/04/04 10:40:48;;;;;;;9.30;4.93;;;15.30;80.70;;;;;;5105228;28;20460;-82
2021/04/04 10:43:17;;;;;;;6.50;4.63;;;15.50;78.90;;;;;;5123496;28;20403;-82
2021/04/04 10:46:01;;;;;;;8.00;4.20;;;15.70;74.20;;;;;;5123528;28;20455;-83
2021/04/04 10:48:28;;;;;;;9.60;4.83;;;16.00;72.20;;;;;;5123649;28;20398;-82
2021/04/04 10:50:54;;;;;;;8.03;4.70;;;16.40;72.80;;;;;;5123783;28;20388;-82
2021/04/04 10:53:21;;;;;;;5.80;5.07;;;16.50;74.00;;;;;;5122942;28;20462;-82
2021/04/04 10:55:48;;;;;;;6.70;4.00;;;16.90;69.80;;;;;;5123416;28;20501;-82
2021/04/04 10:58:14;;;;;;;8.10;3.53;;;16.80;71.00;;;;;;5123313;28;20758;-82
2021/04/04 11:00:43;;;;;;;7.17;4.63;;;17.00;66.80;;;;;;5123170;28;20396;-83
2021/04/04 11:03:08;;;;;;;5.43;4.67;;;16.80;66.30;;;;;;5123079;28;20899;-82
2021/04/04 11:05:36;;;;;;;5.27;4.33;;;16.30;67.50;;;;;;5122469;28;20390;-82
2021/04/04 11:08:03;;;;;;;8.73;4.50;;;16.10;64.40;;;;;;5105391;28;20197;-83
2021/04/04 11:10:29;;;;;;;6.77;4.87;;;15.40;68.10;;;;;;5124023;28;20391;-83
2021/04/04 11:12:56;;;;;;;6.33;4.13;;;16.50;71.40;;;;;;5123907;28;20439;-83
2021/04/04 11:15:24;;;;;;;8.00;4.47;;;17.20;69.50;;;;;;5123401;28;20395;-83
2021/04/04 11:17:51;;;;;;;7.00;4.60;;;16.70;66.20;;;;;;5123356;28;20396;-82
2021/04/04 11:20:19;;;;;;;8.90;4.30;;;16.70;64.70;;;;;;5132353;28;20421;-80
2021/04/04 11:22:46;;;;;;;10.07;5.53;;;17.10;63.70;;;;;;5118416;28;20431;-81
2021/04/04 11:25:15;;;;;;;8.90;4.50;;;17.20;62.70;;;;;;5136196;28;20419;-81
2021/04/04 11:27:44;;;;;;;4.53;3.97;;;17.70;60.80;;;;;;5117494;28;20396;-82
2021/04/04 11:30:32;;;;;;;7.30;4.33;;;18.50;59.30;;;;;;5115153;28;20411;-82
2021/04/04 11:33:22;;;;;;;7.60;4.17;;;18.60;58.20;;;;;;5108836;28;20451;-83
2021/04/04 11:36:07;;;;;;;6.97;4.43;;;19.00;58.20;;;;;;5107017;28;20392;-83
2021/04/04 11:38:40;;;;;;;5.70;4.30;;;19.00;57.80;;;;;;5106175;28;20388;-84
2021/04/04 11:41:22;;;;;;;5.70;4.50;;;18.30;57.70;;;;;;5123880;28;20392;-83
2021/04/04 11:43:51;;;;;;;6.50;4.70;;;18.80;56.30;;;;;;5104828;28;20437;-83
2021/04/04 11:46:48;;;;;;;7.50;4.47;;;18.70;56.50;;;;;;5104781;28;20502;-84
2021/04/04 11:49:39;;;;;;;8.07;5.23;;;19.30;55.70;;;;;;5122353;28;20395;-83
2021/04/04 11:52:41;;;;;;;5.27;4.77;;;19.50;55.40;;;;;;5122462;28;20588;-83
2021/04/04 11:55:08;;;;;;;9.83;4.40;;;20.10;57.00;;;;;;5109991;28;20387;-83
2021/04/04 11:57:36;;;;;;;7.00;4.67;;;20.50;54.10;;;;;;5122658;28;20733;-83
2021/04/04 12:00:10;;;;;;;12.30;6.23;;;20.10;53.40;;;;;;5122566;28;20392;-83
2021/04/04 12:02:37;;;;;;;7.77;5.40;;;20.20;53.60;;;;;;5121181;28;20403;-82
2021/04/04 12:05:07;;;;;;;6.47;5.20;;;20.50;55.60;;;;;;5121466;28;20392;-83
2021/04/04 12:07:45;;;;;;;6.97;6.27;;;21.00;54.60;;;;;;5121484;28;20427;-83
2021/04/04 12:10:13;;;;;;;6.33;4.67;;;21.10;51.90;;;;;;5122485;28;20410;-83
2021/04/04 12:12:39;;;;;;;8.20;6.27;;;20.80;51.30;;;;;;5102645;28;20447;-82
2021/04/04 12:15:06;;;;;;;8.53;5.20;;;20.80;50.90;;;;;;5121962;28;20395;-82
2021/04/04 12:17:32;;;;;;;7.83;5.67;;;20.70;52.20;;;;;;5120510;28;20738;-82
2021/04/04 12:19:59;;;;;;;5.60;5.10;;;21.40;52.30;;;;;;5121115;28;20395;-82
2021/04/04 12:22:41;;;;;;;10.27;5.53;;;21.70;50.40;;;;;;5121932;28;20453;-84
2021/04/04 12:25:10;;;;;;;5.77;4.93;;;21.90;50.70;;;;;;5122096;28;20417;-83
2021/04/04 12:27:37;;;;;;;7.43;5.30;;;21.60;52.30;;;;;;5103754;28;20399;-82
2021/04/04 12:30:04;;;;;;;8.67;5.17;;;20.80;51.10;;;;;;5121142;28;20494;-82
2021/04/04 12:32:32;;;;;;;5.53;4.90;;;20.90;51.50;;;;;;5120730;28;20461;-81
2021/04/04 12:35:01;;;;;;;12.47;5.17;;;21.60;50.00;;;;;;5102199;28;20464;-82
2021/04/04 12:37:30;;;;;;;5.33;4.57;;;22.30;50.30;;;;;;5121500;28;20391;-82
2021/04/04 12:39:58;;;;;;;6.20;4.70;;;21.40;48.80;;;;;;5103020;28;20405;-82
2021/04/04 12:42:27;;;;;;;7.37;4.50;;;20.90;50.50;;;;;;5121677;28;20407;-82
2021/04/04 12:44:53;;;;;;;5.53;5.00;;;21.80;48.90;;;;;;5103556;28;20896;-82
2021/04/04 12:47:21;;;;;;;8.00;5.00;;;22.30;48.30;;;;;;5104173;28;20414;-81
2021/04/04 12:49:59;;;;;;;6.73;4.63;;;21.90;47.70;;;;;;5103673;28;20418;-82
2021/04/04 12:52:48;;;;;;;6.93;5.40;;;21.40;48.70;;;;;;5121038;28;20911;-84
2021/04/04 12:55:19;;;;;;;6.50;5.33;;;21.80;49.20;;;;;;5122255;28;20424;-84
2021/04/04 12:57:47;;;;;;;8.33;5.60;;;21.80;49.70;;;;;;5122403;28;20395;-85
2021/04/04 13:00:18;;;;;;;7.53;5.70;;;22.10;49.50;;;;;;5113745;28;20384;-83
2021/04/04 13:02:55;;;;;;;11.00;5.27;;;21.70;48.90;;;;;;5129640;28;20411;-84
2021/04/04 13:05:21;;;;;;;13.03;6.30;;;22.00;50.70;;;;;;5065236;28;20509;-81
2021/04/04 13:07:47;;;;;;;8.47;5.60;;;21.50;50.00;;;;;;5065421;28;20582;-84
2021/04/04 13:10:13;;;;;;;7.63;5.10;;;20.40;50.60;;;;;;5058523;28;20443;-83
2021/04/04 13:12:40;;;;;;;8.33;5.07;;;20.70;50.10;;;;;;5058662;28;20191;-83
2021/04/04 13:15:08;;;;;;;6.57;5.20;;;20.90;51.60;;;;;;5058015;28;20414;-84
2021/04/04 13:17:41;;;;;;;6.73;5.27;;;21.10;50.80;;;;;;5041024;28;20864;-84
2021/04/04 13:20:09;;;;;;;8.40;5.00;;;21.50;50.40;;;;;;5057770;28;20421;-84
2021/04/04 13:22:36;;;;;;;7.63;4.80;;;21.80;49.30;;;;;;5058108;28;20402;-84